KLBF

North Platte Regional Lee Bird Field Airport

North Platte, Nebraska, USA
METAR KLBF 181553Z AUTO 27006KT 10SM CLR 00/M03 A2995 RMK AO2 SLP164 T00001033
Observed Flight Rules
Dec-18 @ 15:53 UTC (31 minutes ago) Visual Flight Rules
Wind Visibility Clouds
270° at 6 knots 10 miles
  • Clear skies
Temperatures Readings
Current 0°C / 32°F
Dewpoint -3°C / 27°F
Humidity 80%
Altimeter 29.95" Hg
Pressure 1016.4 hPa
Elevation 847
METAR KLBF 181553Z AUTO 27006KT 10SM CLR 00/M03 A2995 RMK AO2 SLP164 T00001033
Observed Flight Rules
Dec-18 @ 15:53 UTC
(31 minutes ago)
VFR
Wind Visibility
270° at 6 knots 10 miles
Clouds
  • Clear skies
Temperature Dewpoint
0°C / 32°F -3°C / 27°F
Humidity Altimeter Pressure
80% 29.95" Hg 1016.4 hPa